Time,TemperatureF,DewpointF,PressureIn,WindDirection,WindDirectionDegrees,WindSpeedMPH,WindSpeedGustMPH,Humidity,HourlyPrecipIn,Conditions,Clouds,dailyrainin,SoftwareType,DateUTC
2013-04-18 00:00:00,53.0,49.8,29.19,ENE,68,0.0,0.0,89,0.00,,---,0.00,VWS V14.00,2013-04-18 05:00:00,
2013-04-18 00:05:00,53.2,50.0,29.19,ENE,68,0.0,0.0,89,0.00,,---,0.00,VWS V14.00,2013-04-18 05:05:00,
2013-04-18 00:10:00,53.2,50.0,29.19,ENE,68,0.0,0.0,89,0.00,,---,0.00,VWS V14.00,2013-04-18 05:10:00,
2013-04-18 00:15:00,53.4,50.2,29.18,ENE,68,0.0,0.0,89,0.00,,---,0.00,VWS V14.00,2013-04-18 05:15:00,
2013-04-18 00:20:00,53.4,50.2,29.17,ENE,68,0.0,0.0,89,0.00,,---,0.00,VWS V14.00,2013-04-18 05:20:00,
2013-04-18 00:25:00,53.4,50.2,29.16,ENE,68,0.0,0.0,89,0.00,,---,0.00,VWS V14.00,2013-04-18 05:25:00,
2013-04-18 00:30:00,53.4,50.2,29.17,ENE,68,0.0,0.0,89,0.00,,---,0.00,VWS V14.00,2013-04-18 05:30:00,
2013-04-18 00:35:00,53.4,50.2,29.16,SE,135,0.0,0.0,89,0.00,,---,0.00,VWS V14.00,2013-04-18 05:35:00,
2013-04-18 00:40:00,53.4,50.2,29.16,SE,135,0.0,0.0,89,0.00,,---,0.00,VWS V14.00,2013-04-18 05:40:00,
2013-04-18 00:45:00,53.7,50.5,29.16,SE,135,0.0,0.0,89,0.00,,---,0.00,VWS V14.00,2013-04-18 05:45:00,
2013-04-18 00:50:00,53.7,50.8,29.16,SE,135,0.0,0.0,90,0.00,,---,0.00,VWS V14.00,2013-04-18 05:50:00,
2013-04-18 00:55:00,53.9,51.0,29.16,SE,135,0.0,0.0,90,0.00,,---,0.00,VWS V14.00,2013-04-18 05:55:00,
2013-04-18 01:00:00,53.9,51.0,29.17,SE,135,0.0,0.0,90,0.00,,---,0.00,VWS V14.00,2013-04-18 06:00:00,
2013-04-18 01:05:00,53.9,51.0,29.16,SE,135,0.0,0.0,90,0.00,,---,0.00,VWS V14.00,2013-04-18 06:05:00,
2013-04-18 01:10:00,53.9,51.0,29.16,SE,135,0.0,0.0,90,0.00,,---,0.00,VWS V14.00,2013-04-18 06:10:00,
2013-04-18 01:15:00,54.1,51.2,29.15,SE,135,0.0,0.0,90,0.00,,---,0.00,VWS V14.00,2013-04-18 06:15:00,
2013-04-18 01:20:00,53.9,51.0,29.15,SE,135,0.0,0.0,90,0.00,,---,0.00,VWS V14.00,2013-04-18 06:20:00,
2013-04-18 01:25:00,54.1,51.2,29.14,SE,135,0.0,0.0,90,0.00,,---,0.00,VWS V14.00,2013-04-18 06:25:00,
2013-04-18 01:30:00,54.5,51.6,29.15,SSW,202,3.3,3.3,90,0.00,,---,0.00,VWS V14.00,2013-04-18 06:30:00,
2013-04-18 01:35:00,55.5,52.6,29.15,SSW,202,7.6,7.6,90,0.00,,---,0.00,VWS V14.00,2013-04-18 06:35:00,
2013-04-18 01:40:00,57.3,54.4,29.15,SSW,202,10.0,10.0,90,0.00,,---,0.00,VWS V14.00,2013-04-18 06:40:00,
2013-04-18 01:45:00,59.5,56.6,29.14,South,180,8.0,8.9,90,0.00,,---,0.00,VWS V14.00,2013-04-18 06:45:00,
2013-04-18 01:50:00,61.5,58.8,29.15,South,180,8.0,9.3,91,0.00,,---,0.00,VWS V14.00,2013-04-18 06:50:00,
2013-04-18 01:55:00,62.9,60.2,29.14,South,180,7.1,10.2,91,0.00,,---,0.00,VWS V14.00,2013-04-18 06:55:00,
2013-04-18 02:00:00,63.8,61.1,29.14,South,180,9.1,9.6,91,0.00,,---,0.00,VWS V14.00,2013-04-18 07:00:00,
2013-04-18 02:05:00,64.4,61.7,29.14,SSW,202,11.6,11.6,91,0.00,,---,0.00,VWS V14.00,2013-04-18 07:05:00,
2013-04-18 02:10:00,64.9,62.2,29.14,SSW,202,9.1,11.1,91,0.00,,---,0.00,VWS V14.00,2013-04-18 07:10:00,
2013-04-18 02:15:00,65.3,62.6,29.13,South,180,8.0,9.6,91,0.00,,---,0.00,VWS V14.00,2013-04-18 07:15:00,
2013-04-18 02:20:00,65.8,62.8,29.14,SSW,202,11.6,11.6,90,0.00,,---,0.00,VWS V14.00,2013-04-18 07:20:00,
2013-04-18 02:25:00,66.0,63.0,29.14,SSW,202,8.5,8.5,90,0.00,,---,0.00,VWS V14.00,2013-04-18 07:25:00,
2013-04-18 02:30:00,66.0,63.0,29.14,SSW,202,8.0,9.1,90,0.00,,---,0.00,VWS V14.00,2013-04-18 07:30:00,
2013-04-18 02:35:00,66.2,63.2,29.14,South,180,7.3,7.3,90,0.00,,---,0.00,VWS V14.00,2013-04-18 07:35:00,
2013-04-18 02:40:00,66.3,63.3,29.13,South,180,7.8,7.8,90,0.00,,---,0.00,VWS V14.00,2013-04-18 07:40:00,
2013-04-18 02:45:00,66.5,63.2,29.13,SSW,202,8.2,8.2,89,0.00,,---,0.00,VWS V14.00,2013-04-18 07:45:00,
2013-04-18 02:50:00,66.7,63.4,29.13,SSW,202,7.6,9.3,89,0.00,,---,0.00,VWS V14.00,2013-04-18 07:50:00,
2013-04-18 02:55:00,66.7,63.4,29.12,South,180,6.2,6.2,89,0.00,,---,0.00,VWS V14.00,2013-04-18 07:55:00,
2013-04-18 03:00:00,66.7,63.0,29.12,South,180,6.7,8.5,88,0.00,,---,0.00,VWS V14.00,2013-04-18 08:00:00,
2013-04-18 03:05:00,66.7,63.0,29.12,South,180,6.4,6.4,88,0.00,,---,0.00,VWS V14.00,2013-04-18 08:05:00,
2013-04-18 03:10:00,66.7,63.0,29.12,South,180,5.5,5.5,88,0.00,,---,0.00,VWS V14.00,2013-04-18 08:10:00,
2013-04-18 03:15:00,66.9,63.2,29.12,SSE,158,7.3,10.0,88,0.00,,---,0.00,VWS V14.00,2013-04-18 08:15:00,
2013-04-18 03:20:00,66.9,62.9,29.11,SSE,158,7.6,9.1,87,0.00,,---,0.00,VWS V14.00,2013-04-18 08:20:00,
2013-04-18 03:25:00,66.9,62.9,29.11,South,180,6.0,8.5,87,0.00,,---,0.00,VWS V14.00,2013-04-18 08:25:00,
2013-04-18 03:30:00,66.9,62.6,29.11,SSW,202,7.6,8.2,86,0.00,,---,0.00,VWS V14.00,2013-04-18 08:30:00,
2013-04-18 03:35:00,66.9,62.6,29.11,SSE,158,11.4,11.4,86,0.00,,---,0.00,VWS V14.00,2013-04-18 08:35:00,
2013-04-18 03:40:00,67.1,62.8,29.10,South,180,8.7,8.7,86,0.00,,---,0.00,VWS V14.00,2013-04-18 08:40:00,
2013-04-18 03:45:00,67.1,62.8,29.10,South,180,8.7,8.7,86,0.00,,---,0.00,VWS V14.00,2013-04-18 08:45:00,
2013-04-18 03:50:00,67.1,62.8,29.09,South,180,7.8,10.2,86,0.00,,---,0.00,VWS V14.00,2013-04-18 08:50:00,
2013-04-18 03:55:00,67.2,62.9,29.08,SSW,202,7.1,8.0,86,0.00,,---,0.00,VWS V14.00,2013-04-18 08:55:00,
2013-04-18 04:00:00,67.2,62.9,29.08,South,180,8.9,9.3,86,0.00,,---,0.00,VWS V14.00,2013-04-18 09:00:00,
2013-04-18 04:05:00,67.2,62.9,29.08,SSW,202,9.1,10.9,86,0.00,,---,0.00,VWS V14.00,2013-04-18 09:05:00,
2013-04-18 04:10:00,67.2,62.9,29.08,South,180,9.3,9.6,86,0.00,,---,0.00,VWS V14.00,2013-04-18 09:10:00,
2013-04-18 04:15:00,67.6,63.3,29.08,South,180,15.4,15.4,86,0.00,,---,0.00,VWS V14.00,2013-04-18 09:15:00,
2013-04-18 04:20:00,67.8,63.5,29.08,South,180,8.7,8.7,86,0.00,,---,0.00,VWS V14.00,2013-04-18 09:20:00,
2013-04-18 04:25:00,67.8,63.1,29.07,South,180,10.7,19.9,85,0.00,,---,0.00,VWS V14.00,2013-04-18 09:25:00,
2013-04-18 04:30:00,67.8,63.1,29.08,South,180,8.2,9.1,85,0.00,,---,0.00,VWS V14.00,2013-04-18 09:30:00,
2013-04-18 04:35:00,67.8,63.1,29.07,SSE,158,8.9,10.2,85,0.00,,---,0.00,VWS V14.00,2013-04-18 09:35:00,
2013-04-18 04:40:00,67.8,63.1,29.07,South,180,13.4,13.4,85,0.00,,---,0.00,VWS V14.00,2013-04-18 09:40:00,
2013-04-18 04:45:00,67.8,63.1,29.06,South,180,11.6,11.6,85,0.00,,---,0.00,VWS V14.00,2013-04-18 09:45:00,
2013-04-18 04:50:00,67.8,63.1,29.07,SSW,202,8.5,8.5,85,0.00,,---,0.00,VWS V14.00,2013-04-18 09:50:00,
2013-04-18 04:55:00,68.1,63.4,29.07,SSE,158,16.5,16.5,85,0.00,,---,0.00,VWS V14.00,2013-04-18 09:55:00,
2013-04-18 05:00:00,68.3,63.6,29.06,South,180,9.1,11.4,85,0.00,,---,0.00,VWS V14.00,2013-04-18 10:00:00,
2013-04-18 05:05:00,68.5,63.8,29.06,South,180,11.1,16.3,85,0.00,,---,0.00,VWS V14.00,2013-04-18 10:05:00,
2013-04-18 05:10:00,68.5,63.8,29.06,South,180,16.5,16.5,85,0.00,,---,0.00,VWS V14.00,2013-04-18 10:10:00,
2013-04-18 05:15:00,68.7,64.0,29.05,SSW,202,12.3,14.5,85,0.00,,---,0.00,VWS V14.00,2013-04-18 10:15:00,
2013-04-18 05:20:00,68.9,64.2,29.05,South,180,11.4,13.8,85,0.00,,---,0.00,VWS V14.00,2013-04-18 10:20:00,
2013-04-18 05:25:00,68.9,64.2,29.06,SSW,202,10.0,10.9,85,0.00,,---,0.00,VWS V14.00,2013-04-18 10:25:00,
2013-04-18 05:30:00,69.0,64.0,29.06,SSW,202,12.5,14.3,84,0.00,,---,0.00,VWS V14.00,2013-04-18 10:30:00,
2013-04-18 05:35:00,69.0,64.0,29.07,SSW,202,10.9,14.5,84,0.00,,---,0.00,VWS V14.00,2013-04-18 10:35:00,
2013-04-18 05:40:00,69.2,64.2,29.07,SW,225,9.3,14.7,84,0.00,,---,0.00,VWS V14.00,2013-04-18 10:40:00,
2013-04-18 05:45:00,69.4,64.4,29.09,West,270,3.3,3.3,84,0.00,,---,0.00,VWS V14.00,2013-04-18 10:45:00,
2013-04-18 05:50:00,68.7,61.6,29.10,SW,225,2.0,2.0,78,0.00,,---,0.00,VWS V14.00,2013-04-18 10:50:00,
2013-04-18 05:55:00,68.1,61.0,29.09,NNE,22,0.0,0.0,78,0.00,,---,0.00,VWS V14.00,2013-04-18 10:55:00,
2013-04-18 06:00:00,67.2,60.1,29.11,SW,225,8.2,8.2,78,0.00,,---,0.00,VWS V14.00,2013-04-18 11:00:00,
2013-04-18 06:05:00,66.5,59.4,29.10,SW,225,3.8,4.4,78,0.04,,---,0.04,VWS V14.00,2013-04-18 11:05:00,
2013-04-18 06:10:00,65.6,58.9,29.09,WSW,248,2.0,2.0,79,0.12,,---,0.12,VWS V14.00,2013-04-18 11:10:00,
2013-04-18 06:15:00,64.9,58.6,29.09,West,270,0.0,0.0,80,0.14,,---,0.14,VWS V14.00,2013-04-18 11:15:00,
2013-04-18 06:20:00,64.2,58.3,29.09,West,270,0.0,0.0,81,0.16,,---,0.16,VWS V14.00,2013-04-18 11:20:00,
2013-04-18 06:25:00,63.6,58.0,29.09,West,270,0.0,0.0,82,0.16,,---,0.16,VWS V14.00,2013-04-18 11:25:00,
2013-04-18 06:30:00,63.3,58.1,29.10,West,270,3.5,3.5,83,0.16,,---,0.16,VWS V14.00,2013-04-18 11:30:00,
2013-04-18 06:35:00,63.1,58.2,29.11,West,270,0.0,0.0,84,0.26,,---,0.26,VWS V14.00,2013-04-18 11:35:00,
2013-04-18 06:40:00,62.7,57.8,29.12,WSW,248,0.0,0.0,84,0.37,,---,0.37,VWS V14.00,2013-04-18 11:40:00,
2013-04-18 06:45:00,62.4,57.8,29.12,WSW,248,0.0,0.0,85,0.44,,---,0.45,VWS V14.00,2013-04-18 11:45:00,
2013-04-18 06:50:00,62.2,57.6,29.12,SW,225,0.0,0.0,85,0.49,,---,0.49,VWS V14.00,2013-04-18 11:50:00,
2013-04-18 06:55:00,62.0,57.5,29.09,WSW,248,0.0,0.0,85,0.53,,---,0.53,VWS V14.00,2013-04-18 11:55:00,
2013-04-18 07:00:00,61.8,57.6,29.11,WSW,248,0.0,0.0,86,0.55,,---,0.55,VWS V14.00,2013-04-18 12:00:00,
2013-04-18 07:05:00,61.8,57.6,29.12,SW,225,0.0,0.0,86,0.49,,---,0.57,VWS V14.00,2013-04-18 12:05:00,
2013-04-18 07:10:00,61.7,57.5,29.14,SSW,202,5.1,5.1,86,0.47,,---,0.59,VWS V14.00,2013-04-18 12:10:00,
2013-04-18 07:15:00,61.5,57.3,29.16,SSW,202,6.9,6.9,86,0.44,,---,0.59,VWS V14.00,2013-04-18 12:15:00,
2013-04-18 07:20:00,61.5,57.6,29.16,South,180,8.9,8.9,87,0.47,,---,0.63,VWS V14.00,2013-04-18 12:20:00,
2013-04-18 07:25:00,61.3,57.4,29.15,SSW,202,6.4,6.4,87,0.49,,---,0.65,VWS V14.00,2013-04-18 12:25:00,
2013-04-18 07:30:00,61.3,57.4,29.13,SSW,202,3.3,3.3,87,0.47,,---,0.65,VWS V14.00,2013-04-18 12:30:00,
2013-04-18 07:35:00,61.3,57.7,29.14,SSW,202,0.0,0.0,88,0.37,,---,0.67,VWS V14.00,2013-04-18 12:35:00,
2013-04-18 07:40:00,61.3,57.7,29.13,SSW,202,0.0,0.0,88,0.24,,---,0.67,VWS V14.00,2013-04-18 12:40:00,
2013-04-18 07:45:00,61.1,57.5,29.13,SSW,202,4.0,4.4,88,0.22,,---,0.69,VWS V14.00,2013-04-18 12:45:00,
2013-04-18 07:50:00,61.1,57.5,29.14,South,180,9.1,9.1,88,0.20,,---,0.69,VWS V14.00,2013-04-18 12:50:00,
2013-04-18 07:55:00,61.1,57.5,29.14,South,180,2.9,6.9,88,0.16,,---,0.71,VWS V14.00,2013-04-18 12:55:00,
2013-04-18 08:00:00,60.9,57.3,29.14,SSW,202,0.0,0.0,88,0.14,,---,0.71,VWS V14.00,2013-04-18 13:00:00,
2013-04-18 08:05:00,60.9,57.3,29.14,South,180,0.0,0.0,88,0.16,,---,0.73,VWS V14.00,2013-04-18 13:05:00,
2013-04-18 08:10:00,60.9,57.3,29.14,South,180,6.4,6.7,88,0.14,,---,0.73,VWS V14.00,2013-04-18 13:10:00,
2013-04-18 08:15:00,60.9,57.3,29.15,SSE,158,7.1,9.1,88,0.12,,---,0.73,VWS V14.00,2013-04-18 13:15:00,
2013-04-18 08:20:00,60.9,57.3,29.16,South,180,5.5,6.7,88,0.10,,---,0.73,VWS V14.00,2013-04-18 13:20:00,
2013-04-18 08:25:00,60.9,57.6,29.15,South,180,5.5,12.9,89,0.10,,---,0.76,VWS V14.00,2013-04-18 13:25:00,
2013-04-18 08:30:00,60.9,57.6,29.14,South,180,8.7,8.7,89,0.08,,---,0.76,VWS V14.00,2013-04-18 13:30:00,
2013-04-18 08:35:00,60.9,57.6,29.12,South,180,0.0,0.0,89,0.10,,---,0.78,VWS V14.00,2013-04-18 13:35:00,
2013-04-18 08:40:00,61.1,57.8,29.12,South,180,0.0,0.0,89,0.08,,---,0.78,VWS V14.00,2013-04-18 13:40:00,
2013-04-18 08:45:00,61.1,57.8,29.12,SSW,202,0.0,0.0,89,0.08,,---,0.78,VWS V14.00,2013-04-18 13:45:00,
2013-04-18 08:50:00,61.1,57.8,29.11,SW,225,0.0,0.0,89,0.06,,---,0.78,VWS V14.00,2013-04-18 13:50:00,
2013-04-18 08:55:00,61.1,57.8,29.12,SSW,202,0.0,0.0,89,0.06,,---,0.78,VWS V14.00,2013-04-18 13:55:00,
2013-04-18 09:00:00,61.1,57.8,29.12,South,180,0.0,0.0,89,0.04,,---,0.78,VWS V14.00,2013-04-18 14:00:00,
2013-04-18 09:05:00,61.1,57.8,29.15,South,180,7.8,7.8,89,0.04,,---,0.78,VWS V14.00,2013-04-18 14:05:00,
2013-04-18 09:10:00,61.3,58.0,29.15,South,180,8.5,9.3,89,0.08,,---,0.81,VWS V14.00,2013-04-18 14:10:00,
2013-04-18 09:15:00,61.3,58.0,29.15,SSE,158,5.8,5.8,89,0.08,,---,0.81,VWS V14.00,2013-04-18 14:15:00,
2013-04-18 09:20:00,61.3,58.0,29.16,South,180,8.0,8.0,89,0.08,,---,0.81,VWS V14.00,2013-04-18 14:20:00,
2013-04-18 09:25:00,61.3,58.0,29.15,SSE,158,4.9,5.3,89,0.06,,---,0.81,VWS V14.00,2013-04-18 14:25:00,
2013-04-18 09:30:00,61.3,58.0,29.14,South,180,11.4,11.4,89,0.08,,---,0.83,VWS V14.00,2013-04-18 14:30:00,
2013-04-18 09:35:00,61.3,58.0,29.14,South,180,7.3,7.3,89,0.06,,---,0.83,VWS V14.00,2013-04-18 14:35:00,
2013-04-18 09:40:00,61.3,58.0,29.14,South,180,2.4,6.9,89,0.06,,---,0.83,VWS V14.00,2013-04-18 14:40:00,
2013-04-18 09:45:00,61.3,58.0,29.14,South,180,7.6,7.6,89,0.10,,---,0.88,VWS V14.00,2013-04-18 14:45:00,
2013-04-18 09:50:00,61.3,58.0,29.14,South,180,7.8,7.8,89,0.10,,---,0.88,VWS V14.00,2013-04-18 14:50:00,
2013-04-18 09:56:00,61.3,58.0,29.15,South,180,9.1,9.1,89,0.10,,---,0.88,VWS V14.00,2013-04-18 14:56:00,
2013-04-18 10:01:00,61.3,58.0,29.15,South,180,9.6,9.6,89,0.12,,---,0.90,VWS V14.00,2013-04-18 15:01:00,
2013-04-18 10:07:00,61.3,58.0,29.16,SSE,158,6.4,11.1,89,0.08,,---,0.90,VWS V14.00,2013-04-18 15:07:00,
2013-04-18 10:12:00,61.5,58.2,29.16,SSE,158,12.7,12.7,89,0.08,,---,0.90,VWS V14.00,2013-04-18 15:12:00,
2013-04-18 10:17:00,61.3,58.0,29.17,South,180,8.0,8.0,89,0.10,,---,0.92,VWS V14.00,2013-04-18 15:17:00,
2013-04-18 10:22:00,61.3,58.0,29.16,SSE,158,2.4,7.6,89,0.14,,---,0.96,VWS V14.00,2013-04-18 15:22:00,
2013-04-18 10:27:00,61.3,58.0,29.17,SSE,158,12.5,12.5,89,0.14,,---,0.98,VWS V14.00,2013-04-18 15:27:00,
2013-04-18 10:32:00,61.3,58.0,29.16,SSE,158,11.6,12.5,89,0.14,,---,0.98,VWS V14.00,2013-04-18 15:32:00,
2013-04-18 10:37:00,61.3,58.0,29.15,SSE,158,14.0,14.0,89,0.16,,---,1.00,VWS V14.00,2013-04-18 15:37:00,
2013-04-18 10:42:00,61.3,58.0,29.15,North,0,0.0,6.2,89,0.12,,---,1.00,VWS V14.00,2013-04-18 15:42:00,
2013-04-18 10:47:00,61.3,58.3,29.15,SSE,158,6.2,9.3,90,0.14,,---,1.02,VWS V14.00,2013-04-18 15:47:00,
2013-04-18 10:52:00,61.3,58.3,29.14,SSE,158,6.9,6.9,90,0.14,,---,1.02,VWS V14.00,2013-04-18 15:52:00,
2013-04-18 10:57:00,61.3,58.3,29.14,SSE,158,6.2,6.2,90,0.16,,---,1.04,VWS V14.00,2013-04-18 15:57:00,
2013-04-18 11:02:00,61.5,58.5,29.14,SSE,158,4.9,4.9,90,0.14,,---,1.04,VWS V14.00,2013-04-18 16:02:00,
2013-04-18 11:07:00,61.5,58.5,29.14,SSE,158,5.3,5.3,90,0.16,,---,1.06,VWS V14.00,2013-04-18 16:07:00,
2013-04-18 11:12:00,61.3,58.3,29.14,SSE,158,4.0,11.4,90,0.14,,---,1.06,VWS V14.00,2013-04-18 16:12:00,
2013-04-18 11:17:00,61.3,58.3,29.14,SE,135,11.1,11.1,90,0.16,,---,1.08,VWS V14.00,2013-04-18 16:17:00,
2013-04-18 11:22:00,61.3,58.3,29.14,SSE,158,3.8,9.1,90,0.14,,---,1.10,VWS V14.00,2013-04-18 16:22:00,
2013-04-18 11:27:00,61.3,58.3,29.14,SSE,158,6.7,6.7,90,0.12,,---,1.10,VWS V14.00,2013-04-18 16:27:00,
2013-04-18 11:32:00,61.3,58.3,29.14,SSE,158,2.2,7.3,90,0.14,,---,1.12,VWS V14.00,2013-04-18 16:32:00,
2013-04-18 11:37:00,61.1,58.2,29.14,SSE,158,10.9,11.1,90,0.12,,---,1.12,VWS V14.00,2013-04-18 16:37:00,
2013-04-18 11:42:00,61.3,58.3,29.15,SSE,158,9.6,9.6,90,0.12,,---,1.14,VWS V14.00,2013-04-18 16:42:00,
2013-04-18 11:47:00,61.1,58.2,29.15,SE,135,7.6,13.1,90,0.14,,---,1.16,VWS V14.00,2013-04-18 16:47:00,
2013-04-18 11:52:00,61.1,58.2,29.15,SSE,158,14.3,14.3,90,0.14,,---,1.18,VWS V14.00,2013-04-18 16:52:00,
2013-04-18 11:57:00,61.1,58.2,29.15,South,180,6.9,10.5,90,0.16,,---,1.20,VWS V14.00,2013-04-18 16:57:00,
2013-04-18 12:02:00,61.1,58.2,29.14,SE,135,6.7,10.5,90,0.18,,---,1.22,VWS V14.00,2013-04-18 17:02:00,
2013-04-18 12:07:00,61.1,58.2,29.14,SSE,158,7.3,7.3,90,0.18,,---,1.24,VWS V14.00,2013-04-18 17:07:00,
2013-04-18 12:12:00,61.1,58.2,29.14,SSE,158,0.0,0.0,90,0.18,,---,1.26,VWS V14.00,2013-04-18 17:12:00,
2013-04-18 12:17:00,61.1,58.2,29.14,SSE,158,3.3,7.6,90,0.20,,---,1.28,VWS V14.00,2013-04-18 17:17:00,
2013-04-18 12:22:00,61.1,58.2,29.14,SSE,158,8.7,10.7,90,0.22,,---,1.33,VWS V14.00,2013-04-18 17:22:00,
2013-04-18 12:27:00,61.1,58.2,29.13,SE,135,9.3,9.3,90,0.24,,---,1.35,VWS V14.00,2013-04-18 17:27:00,
2013-04-18 12:32:00,61.1,58.2,29.12,SSE,158,8.0,10.7,90,0.26,,---,1.39,VWS V14.00,2013-04-18 17:32:00,
2013-04-18 12:37:00,61.1,58.2,29.10,SE,135,11.4,11.4,90,0.24,,---,1.39,VWS V14.00,2013-04-18 17:37:00,
2013-04-18 12:42:00,60.9,58.0,29.11,SSE,158,20.5,20.5,90,0.24,,---,1.41,VWS V14.00,2013-04-18 17:42:00,
2013-04-18 12:47:00,60.9,58.0,29.12,SSE,158,9.6,12.9,90,0.24,,---,1.43,VWS V14.00,2013-04-18 17:47:00,
2013-04-18 12:52:00,60.9,58.0,29.12,SE,135,15.2,15.2,90,0.24,,---,1.45,VWS V14.00,2013-04-18 17:52:00,
2013-04-18 12:57:00,60.9,58.0,29.11,SSE,158,12.5,12.5,90,0.22,,---,1.45,VWS V14.00,2013-04-18 17:57:00,
2013-04-18 13:02:00,60.9,58.0,29.09,SSE,158,15.6,15.6,90,0.24,,---,1.47,VWS V14.00,2013-04-18 18:02:00,
2013-04-18 13:07:00,60.9,58.0,29.09,SE,135,13.6,13.6,90,0.20,,---,1.47,VWS V14.00,2013-04-18 18:07:00,
2013-04-18 13:12:00,60.9,58.0,29.08,SE,135,11.6,11.6,90,0.20,,---,1.49,VWS V14.00,2013-04-18 18:12:00,
2013-04-18 13:17:00,60.9,58.0,29.06,SSE,158,13.8,13.8,90,0.18,,---,1.49,VWS V14.00,2013-04-18 18:17:00,
2013-04-18 13:22:00,60.9,58.0,29.05,SE,135,6.0,11.4,90,0.16,,---,1.49,VWS V14.00,2013-04-18 18:22:00,
2013-04-18 13:28:00,61.1,58.2,29.02,ESE,112,7.1,10.5,90,0.12,,---,1.51,VWS V14.00,2013-04-18 18:28:00,
2013-04-18 13:33:00,61.1,58.2,29.05,SSE,158,18.7,18.7,90,0.12,,---,1.51,VWS V14.00,2013-04-18 18:33:00,
2013-04-18 13:38:00,61.3,58.3,29.05,SSE,158,16.5,16.5,90,0.10,,---,1.51,VWS V14.00,2013-04-18 18:38:00,
2013-04-18 13:43:00,61.3,58.3,29.01,SSE,158,6.0,7.3,90,0.08,,---,1.51,VWS V14.00,2013-04-18 18:43:00,
2013-04-18 13:48:00,61.5,58.5,29.04,SE,135,7.3,7.3,90,0.08,,---,1.51,VWS V14.00,2013-04-18 18:48:00,
2013-04-18 13:53:00,61.5,58.5,29.05,SSE,158,15.4,15.4,90,0.06,,---,1.51,VWS V14.00,2013-04-18 18:53:00,
2013-04-18 13:58:00,61.5,58.5,29.06,SE,135,8.7,11.8,90,0.06,,---,1.51,VWS V14.00,2013-04-18 18:58:00,
2013-04-18 14:03:00,61.5,58.5,29.06,SSE,158,7.8,10.7,90,0.04,,---,1.51,VWS V14.00,2013-04-18 19:03:00,
2013-04-18 14:08:00,61.5,58.5,29.07,SSE,158,8.9,8.9,90,0.04,,---,1.51,VWS V14.00,2013-04-18 19:08:00,
2013-04-18 14:13:00,61.5,58.5,29.06,SSE,158,10.0,10.2,90,0.02,,---,1.51,VWS V14.00,2013-04-18 19:13:00,
2013-04-18 14:18:00,61.7,58.7,29.06,SSE,158,12.3,12.3,90,0.02,,---,1.51,VWS V14.00,2013-04-18 19:18:00,
2013-04-18 14:23:00,61.8,58.8,29.06,SSE,158,8.9,8.9,90,0.00,,---,1.51,VWS V14.00,2013-04-18 19:23:00,
2013-04-18 14:28:00,62.2,58.9,29.07,SSE,158,8.0,8.0,89,0.00,,---,1.51,VWS V14.00,2013-04-18 19:28:00,
2013-04-18 14:33:00,62.2,58.9,29.06,South,180,10.5,12.9,89,0.00,,---,1.51,VWS V14.00,2013-04-18 19:33:00,
2013-04-18 14:38:00,62.4,59.1,29.06,SSE,158,12.7,16.1,89,0.00,,---,1.51,VWS V14.00,2013-04-18 19:38:00,
2013-04-18 14:43:00,62.4,59.1,29.06,South,180,10.9,10.9,89,0.00,,---,1.51,VWS V14.00,2013-04-18 19:43:00,
2013-04-18 14:48:00,62.6,59.3,29.06,South,180,9.3,12.9,89,0.00,,---,1.51,VWS V14.00,2013-04-18 19:48:00,
2013-04-18 14:53:00,62.4,59.1,29.07,South,180,9.6,9.6,89,0.00,,---,1.51,VWS V14.00,2013-04-18 19:53:00,
2013-04-18 14:58:00,62.4,59.1,29.07,SSE,158,13.1,13.1,89,0.00,,---,1.51,VWS V14.00,2013-04-18 19:58:00,
2013-04-18 15:03:00,62.6,59.3,29.07,South,180,9.1,9.1,89,0.00,,---,1.51,VWS V14.00,2013-04-18 20:03:00,
2013-04-18 15:08:00,62.6,59.3,29.08,SSE,158,10.9,10.9,89,0.00,,---,1.51,VWS V14.00,2013-04-18 20:08:00,
2013-04-18 15:13:00,62.6,59.3,29.06,SSE,158,13.4,13.4,89,0.00,,---,1.51,VWS V14.00,2013-04-18 20:13:00,
2013-04-18 15:18:00,62.6,59.3,29.05,South,180,21.0,21.0,89,0.02,,---,1.53,VWS V14.00,2013-04-18 20:18:00,
2013-04-18 15:23:00,62.6,59.3,29.05,SSE,158,17.0,17.0,89,0.02,,---,1.53,VWS V14.00,2013-04-18 20:23:00,
2013-04-18 15:28:00,62.7,59.4,29.04,SE,135,14.9,20.3,89,0.02,,---,1.53,VWS V14.00,2013-04-18 20:28:00,
2013-04-18 15:33:00,62.6,59.3,29.01,SSE,158,14.9,14.9,89,0.04,,---,1.55,VWS V14.00,2013-04-18 20:33:00,
2013-04-18 15:38:00,62.7,59.4,28.97,SSE,158,19.4,19.4,89,0.04,,---,1.55,VWS V14.00,2013-04-18 20:38:00,
2013-04-18 15:43:00,62.7,59.4,29.04,South,180,10.7,14.0,89,0.04,,---,1.55,VWS V14.00,2013-04-18 20:43:00,
2013-04-18 15:48:00,62.7,59.4,29.06,South,180,15.2,15.6,89,0.04,,---,1.55,VWS V14.00,2013-04-18 20:48:00,
2013-04-18 15:53:00,62.9,59.6,29.05,SSE,158,12.7,12.7,89,0.04,,---,1.55,VWS V14.00,2013-04-18 20:53:00,
2013-04-18 15:58:00,62.9,59.6,29.05,South,180,19.0,19.0,89,0.04,,---,1.55,VWS V14.00,2013-04-18 20:58:00,
2013-04-18 17:03:00,53.9,49.2,29.07,WSW,248,0.0,0.0,84,0.04,,---,7.56,VWS V14.00,2013-04-18 22:03:00,
2013-04-18 17:09:00,53.9,49.2,100.00,WSW,248,0.0,0.0,84,0.04,,---,7.56,VWS V14.00,2013-04-18 22:09:00,
2013-04-18 17:14:00,53.9,49.2,100.00,WSW,248,0.0,0.0,84,0.04,,---,7.56,VWS V14.00,2013-04-18 22:14:00,
2013-04-18 17:19:00,53.9,49.2,100.00,WSW,248,0.0,0.0,84,0.04,,---,7.56,VWS V14.00,2013-04-18 22:19:00,
2013-04-18 17:24:00,53.9,49.2,100.00,WSW,248,0.0,0.0,84,0.04,,---,7.56,VWS V14.00,2013-04-18 22:24:00,
2013-04-18 17:29:00,53.9,49.2,100.00,WSW,248,0.0,0.0,84,0.04,,---,7.56,VWS V14.00,2013-04-18 22:29:00,
2013-04-18 17:34:00,53.9,49.2,100.00,WSW,248,0.0,0.0,84,0.04,,---,7.56,VWS V14.00,2013-04-18 22:34:00,
2013-04-18 17:39:00,53.9,49.2,100.00,WSW,248,0.0,0.0,84,0.04,,---,7.56,VWS V14.00,2013-04-18 22:39:00,
2013-04-18 17:44:00,53.9,49.2,100.00,WSW,248,0.0,0.0,84,0.04,,---,7.56,VWS V14.00,2013-04-18 22:44:00,
2013-04-18 17:49:00,53.9,49.2,100.00,WSW,248,0.0,0.0,84,0.04,,---,7.56,VWS V14.00,2013-04-18 22:49:00,
2013-04-18 17:54:00,53.9,49.2,100.00,WSW,248,0.0,0.0,84,0.04,,---,7.56,VWS V14.00,2013-04-18 22:54:00,
2013-04-18 17:59:00,53.9,49.2,100.00,WSW,248,0.0,0.0,84,0.04,,---,7.56,VWS V14.00,2013-04-18 22:59:00,
2013-04-18 18:04:00,53.9,49.2,100.00,WSW,248,0.0,0.0,84,0.04,,---,7.56,VWS V14.00,2013-04-18 23:04:00,
2013-04-18 18:09:00,53.9,49.2,100.00,WSW,248,0.0,0.0,84,0.04,,---,7.56,VWS V14.00,2013-04-18 23:09:00,
2013-04-18 18:14:00,53.9,49.2,100.00,WSW,248,0.0,0.0,84,0.04,,---,7.56,VWS V14.00,2013-04-18 23:14:00,
2013-04-18 18:19:00,53.9,49.2,100.00,WSW,248,0.0,0.0,84,0.04,,---,7.56,VWS V14.00,2013-04-18 23:19:00,
2013-04-18 18:24:00,53.9,49.2,100.00,WSW,248,0.0,0.0,84,0.04,,---,7.56,VWS V14.00,2013-04-18 23:24:00,
2013-04-18 18:29:00,53.9,49.2,100.00,WSW,248,0.0,0.0,84,0.04,,---,7.56,VWS V14.00,2013-04-18 23:29:00,
2013-04-18 18:34:00,53.9,49.2,100.00,WSW,248,0.0,0.0,84,0.04,,---,7.56,VWS V14.00,2013-04-18 23:34:00,
2013-04-18 18:39:00,53.9,49.2,100.00,WSW,248,0.0,0.0,84,0.04,,---,7.56,VWS V14.00,2013-04-18 23:39:00,
2013-04-18 18:44:00,53.9,49.2,100.00,WSW,248,0.0,0.0,84,0.04,,---,7.56,VWS V14.00,2013-04-18 23:44:00,
2013-04-18 18:49:00,53.9,49.2,100.00,WSW,248,0.0,0.0,84,0.04,,---,7.56,VWS V14.00,2013-04-18 23:49:00,
2013-04-18 18:54:00,53.9,49.2,100.00,WSW,248,0.0,0.0,84,0.04,,---,7.56,VWS V14.00,2013-04-18 23:54:00,
2013-04-18 18:59:00,53.9,49.2,100.00,WSW,248,0.0,0.0,84,0.04,,---,7.56,VWS V14.00,2013-04-18 23:59:00,
2013-04-18 19:04:00,53.9,49.2,100.00,WSW,248,0.0,0.0,84,0.04,,---,7.56,VWS V14.00,2013-04-19 00:04:00,
2013-04-18 19:09:00,53.9,49.2,100.00,WSW,248,0.0,0.0,84,0.04,,---,7.56,VWS V14.00,2013-04-19 00:09:00,
2013-04-18 19:14:00,53.9,49.2,100.00,WSW,248,0.0,0.0,84,0.04,,---,7.56,VWS V14.00,2013-04-19 00:14:00,
2013-04-18 19:19:00,53.9,49.2,100.00,WSW,248,0.0,0.0,84,0.04,,---,7.56,VWS V14.00,2013-04-19 00:19:00,
2013-04-18 19:24:00,53.9,49.2,100.00,WSW,248,0.0,0.0,84,0.04,,---,7.56,VWS V14.00,2013-04-19 00:24:00,
2013-04-18 19:29:00,53.9,49.2,100.00,WSW,248,0.0,0.0,84,0.04,,---,7.56,VWS V14.00,2013-04-19 00:29:00,
2013-04-18 19:34:00,53.9,49.2,100.00,WSW,248,0.0,0.0,84,0.04,,---,7.56,VWS V14.00,2013-04-19 00:34:00,
2013-04-18 19:39:00,53.9,49.2,100.00,WSW,248,0.0,0.0,84,0.04,,---,7.56,VWS V14.00,2013-04-19 00:39:00,
2013-04-18 19:44:00,53.9,49.2,100.00,WSW,248,0.0,0.0,84,0.04,,---,7.56,VWS V14.00,2013-04-19 00:44:00,
2013-04-18 19:49:00,53.9,49.2,100.00,WSW,248,0.0,0.0,84,0.04,,---,7.56,VWS V14.00,2013-04-19 00:49:00,
2013-04-18 19:54:00,53.9,49.2,100.00,WSW,248,0.0,0.0,84,0.04,,---,7.56,VWS V14.00,2013-04-19 00:54:00,
2013-04-18 19:59:00,53.9,49.2,100.00,WSW,248,0.0,0.0,84,0.04,,---,7.56,VWS V14.00,2013-04-19 00:59:00,
2013-04-18 20:04:00,53.9,49.2,100.00,WSW,248,0.0,0.0,84,0.04,,---,7.56,VWS V14.00,2013-04-19 01:04:00,
2013-04-18 20:09:00,53.9,49.2,100.00,WSW,248,0.0,0.0,84,0.04,,---,7.56,VWS V14.00,2013-04-19 01:09:00,
2013-04-18 20:14:00,53.9,49.2,100.00,WSW,248,0.0,0.0,84,0.04,,---,7.56,VWS V14.00,2013-04-19 01:14:00,
2013-04-18 20:19:00,53.9,49.2,100.00,WSW,248,0.0,0.0,84,0.04,,---,7.56,VWS V14.00,2013-04-19 01:19:00,
2013-04-18 20:24:00,53.9,49.2,100.00,WSW,248,0.0,0.0,84,0.04,,---,7.56,VWS V14.00,2013-04-19 01:24:00,
2013-04-18 20:29:00,53.9,49.2,100.00,WSW,248,0.0,0.0,84,0.04,,---,7.56,VWS V14.00,2013-04-19 01:29:00,
2013-04-18 20:34:00,53.9,49.2,100.00,WSW,248,0.0,0.0,84,0.04,,---,7.56,VWS V14.00,2013-04-19 01:34:00,
2013-04-18 20:39:00,53.9,49.2,100.00,WSW,248,0.0,0.0,84,0.04,,---,7.56,VWS V14.00,2013-04-19 01:39:00,
2013-04-18 20:44:00,53.9,49.2,100.00,WSW,248,0.0,0.0,84,0.04,,---,7.56,VWS V14.00,2013-04-19 01:44:00,
2013-04-18 20:49:00,53.9,49.2,100.00,WSW,248,0.0,0.0,84,0.04,,---,7.56,VWS V14.00,2013-04-19 01:49:00,
2013-04-18 20:54:00,53.9,49.2,100.00,WSW,248,0.0,0.0,84,0.04,,---,7.56,VWS V14.00,2013-04-19 01:54:00,
2013-04-18 20:59:00,53.9,49.2,100.00,WSW,248,0.0,0.0,84,0.04,,---,7.56,VWS V14.00,2013-04-19 01:59:00,
2013-04-18 21:04:00,53.9,49.2,100.00,WSW,248,0.0,0.0,84,0.04,,---,7.56,VWS V14.00,2013-04-19 02:04:00,
2013-04-18 21:09:00,53.9,49.2,100.00,WSW,248,0.0,0.0,84,0.04,,---,7.56,VWS V14.00,2013-04-19 02:09:00,
2013-04-18 21:14:00,53.9,49.2,100.00,WSW,248,0.0,0.0,84,0.04,,---,7.56,VWS V14.00,2013-04-19 02:14:00,
2013-04-18 21:19:00,53.9,49.2,100.00,WSW,248,0.0,0.0,84,0.04,,---,7.56,VWS V14.00,2013-04-19 02:19:00,
2013-04-18 21:24:00,53.9,49.2,100.00,WSW,248,0.0,0.0,84,0.04,,---,7.56,VWS V14.00,2013-04-19 02:24:00,
2013-04-18 21:29:00,53.9,49.2,100.00,WSW,248,0.0,0.0,84,0.04,,---,7.56,VWS V14.00,2013-04-19 02:29:00,
2013-04-18 21:34:00,53.9,49.2,100.00,WSW,248,0.0,0.0,84,0.04,,---,7.56,VWS V14.00,2013-04-19 02:34:00,
2013-04-18 21:39:00,53.9,49.2,100.00,WSW,248,0.0,0.0,84,0.04,,---,7.56,VWS V14.00,2013-04-19 02:39:00,
2013-04-18 21:44:00,53.9,49.2,100.00,WSW,248,0.0,0.0,84,0.04,,---,7.56,VWS V14.00,2013-04-19 02:44:00,
2013-04-18 21:49:00,53.9,49.2,100.00,WSW,248,0.0,0.0,84,0.04,,---,7.56,VWS V14.00,2013-04-19 02:49:00,
2013-04-18 21:54:00,53.9,49.2,100.00,WSW,248,0.0,0.0,84,0.04,,---,7.56,VWS V14.00,2013-04-19 02:54:00,
2013-04-18 21:59:00,53.9,49.2,100.00,WSW,248,0.0,0.0,84,0.04,,---,7.56,VWS V14.00,2013-04-19 02:59:00,
2013-04-18 22:04:00,53.9,49.2,100.00,WSW,248,0.0,0.0,84,0.04,,---,7.56,VWS V14.00,2013-04-19 03:04:00,
2013-04-18 22:09:00,53.9,49.2,100.00,WSW,248,0.0,0.0,84,0.04,,---,7.56,VWS V14.00,2013-04-19 03:09:00,
2013-04-18 22:14:00,53.9,49.2,100.00,WSW,248,0.0,0.0,84,0.04,,---,7.56,VWS V14.00,2013-04-19 03:14:00,
2013-04-18 22:19:00,53.9,49.2,100.00,WSW,248,0.0,0.0,84,0.04,,---,7.56,VWS V14.00,2013-04-19 03:19:00,
2013-04-18 22:24:00,53.9,49.2,100.00,WSW,248,0.0,0.0,84,0.04,,---,7.56,VWS V14.00,2013-04-19 03:24:00,
2013-04-18 22:29:00,53.9,49.2,100.00,WSW,248,0.0,0.0,84,0.04,,---,7.56,VWS V14.00,2013-04-19 03:29:00,
2013-04-18 22:34:00,53.9,49.2,100.00,WSW,248,0.0,0.0,84,0.04,,---,7.56,VWS V14.00,2013-04-19 03:34:00,
2013-04-18 22:39:00,53.9,49.2,100.00,WSW,248,0.0,0.0,84,0.04,,---,7.56,VWS V14.00,2013-04-19 03:39:00,
2013-04-18 22:44:00,53.9,49.2,100.00,WSW,248,0.0,0.0,84,0.04,,---,7.56,VWS V14.00,2013-04-19 03:44:00,
2013-04-18 22:49:00,53.9,49.2,100.00,WSW,248,0.0,0.0,84,0.04,,---,7.56,VWS V14.00,2013-04-19 03:49:00,
2013-04-18 22:54:00,53.9,49.2,100.00,WSW,248,0.0,0.0,84,0.04,,---,7.56,VWS V14.00,2013-04-19 03:54:00,
2013-04-18 22:59:00,53.9,49.2,100.00,WSW,248,0.0,0.0,84,0.04,,---,7.56,VWS V14.00,2013-04-19 03:59:00,
2013-04-18 23:01:00,53.9,49.2,100.00,WSW,248,0.0,0.0,84,0.04,,---,7.56,VWS V14.00,2013-04-19 04:01:00,
2013-04-18 23:02:00,53.9,49.2,100.00,WSW,248,0.0,0.0,84,0.04,,---,7.56,VWS V14.00,2013-04-19 04:02:00,
2013-04-18 23:03:00,53.9,49.2,100.00,WSW,248,0.0,0.0,84,0.04,,---,7.56,VWS V14.00,2013-04-19 04:03:00,
2013-04-18 23:06:00,53.9,49.2,100.00,WSW,248,0.0,0.0,84,0.04,,---,7.56,VWS V14.00,2013-04-19 04:06:00,
2013-04-18 23:11:00,53.9,49.2,100.00,WSW,248,0.0,0.0,84,0.04,,---,7.56,VWS V14.00,2013-04-19 04:11:00,
2013-04-18 23:13:00,53.9,49.2,100.00,WSW,248,0.0,0.0,84,0.04,,---,7.56,VWS V14.00,2013-04-19 04:13:00,
2013-04-18 23:18:00,53.9,49.2,100.00,WSW,248,0.0,0.0,84,0.04,,---,7.56,VWS V14.00,2013-04-19 04:18:00,
2013-04-18 23:23:00,53.9,49.2,100.00,WSW,248,0.0,0.0,84,0.04,,---,7.56,VWS V14.00,2013-04-19 04:23:00,
2013-04-18 23:28:00,53.9,49.2,100.00,WSW,248,0.0,0.0,84,0.04,,---,7.56,VWS V14.00,2013-04-19 04:28:00,
2013-04-18 23:33:00,53.9,49.2,100.00,WSW,248,0.0,0.0,84,0.04,,---,7.56,VWS V14.00,2013-04-19 04:33:00,
2013-04-18 23:38:00,53.9,49.2,100.00,WSW,248,0.0,0.0,84,0.04,,---,7.56,VWS V14.00,2013-04-19 04:38:00,
2013-04-18 23:43:00,53.9,49.2,100.00,WSW,248,0.0,0.0,84,0.04,,---,7.56,VWS V14.00,2013-04-19 04:43:00,
2013-04-18 23:48:00,53.9,49.2,100.00,WSW,248,0.0,0.0,84,0.04,,---,7.56,VWS V14.00,2013-04-19 04:48:00,
2013-04-18 23:53:00,53.9,49.2,100.00,WSW,248,0.0,0.0,84,0.04,,---,7.56,VWS V14.00,2013-04-19 04:53:00,
2013-04-18 23:58:00,53.9,49.2,100.00,WSW,248,0.0,0.0,84,0.04,,---,7.56,VWS V14.00,2013-04-19 04:58:00,